Time;durP1;ratioP1;P1;durP2;ratioP2;P2;SDS_P1;SDS_P2;PMS_P1;PMS_P2;Temp;Humidity;BMP_temperature;BMP_pressure;BME280_temperature;BME280_humidity;BME280_pressure;Samples;Min_cycle;Max_cycle;Signal;HPM_P1;HPM_P2
2023/05/01 00:00:52;;;;;;;14.90;8.95;;;5.70;99.90;;;;;;5020106;28;20088;-75
2023/05/01 00:03:18;;;;;;;11.50;8.93;;;5.70;99.90;;;;;;5019466;28;20466;-75
2023/05/01 00:05:44;;;;;;;9.75;8.40;;;5.60;99.90;;;;;;5019228;28;20030;-75
2023/05/01 00:08:11;;;;;;;15.93;9.35;;;5.60;99.90;;;;;;5017101;28;20026;-75
2023/05/01 00:10:37;;;;;;;14.98;9.73;;;5.60;99.90;;;;;;4999744;28;20458;-75
2023/05/01 00:13:03;;;;;;;14.25;9.80;;;5.50;99.90;;;;;;5016719;28;20026;-75
2023/05/01 00:15:30;;;;;;;13.50;8.63;;;5.60;99.90;;;;;;5016682;28;20036;-75
2023/05/01 00:17:55;;;;;;;15.82;9.68;;;5.50;99.90;;;;;;4999446;28;20036;-75
2023/05/01 00:20:22;;;;;;;13.38;9.68;;;5.50;99.90;;;;;;5016992;28;20513;-75
2023/05/01 00:22:48;;;;;;;13.50;8.98;;;5.40;99.90;;;;;;4997126;28;20057;-75
2023/05/01 00:25:14;;;;;;;16.65;9.50;;;5.40;99.90;;;;;;5014910;28;20065;-75
2023/05/01 00:27:39;;;;;;;14.80;8.98;;;5.40;99.90;;;;;;4997421;28;20081;-75
2023/05/01 00:30:06;;;;;;;11.63;9.48;;;5.40;99.90;;;;;;5014804;28;20493;-75
2023/05/01 00:32:33;;;;;;;12.13;8.43;;;5.30;99.90;;;;;;5014297;28;20497;-75
2023/05/01 00:34:58;;;;;;;10.15;8.25;;;5.30;99.90;;;;;;5016877;28;20034;-75
2023/05/01 00:37:24;;;;;;;14.13;8.75;;;5.30;99.90;;;;;;5001349;28;20030;-75
2023/05/01 00:39:50;;;;;;;12.73;8.68;;;5.20;99.90;;;;;;5019276;28;20021;-75
2023/05/01 00:42:15;;;;;;;15.70;8.52;;;5.20;99.90;;;;;;5018304;28;20026;-75
2023/05/01 00:44:41;;;;;;;13.05;9.38;;;5.20;99.90;;;;;;5017624;28;20032;-75
2023/05/01 00:47:06;;;;;;;12.32;8.40;;;5.20;99.90;;;;;;5017622;28;20093;-75
2023/05/01 00:49:32;;;;;;;13.40;9.35;;;5.20;99.90;;;;;;5016706;28;20026;-75
2023/05/01 00:51:58;;;;;;;10.93;8.00;;;6.10;99.90;;;;;;4999871;28;20026;-75
2023/05/01 00:54:26;;;;;;;14.15;8.75;;;5.10;99.90;;;;;;5017442;28;20022;-75
2023/05/01 00:56:52;;;;;;;10.77;8.25;;;5.10;99.90;;;;;;4999720;28;20033;-75
2023/05/01 00:59:18;;;;;;;12.20;8.75;;;5.10;99.90;;;;;;4999970;28;20421;-75
2023/05/01 01:01:43;;;;;;;11.50;8.25;;;5.00;99.90;;;;;;5017506;28;20079;-74
2023/05/01 01:04:09;;;;;;;15.43;9.00;;;5.00;99.90;;;;;;4999596;28;20026;-75
2023/05/01 01:06:51;;;;;;;11.68;8.77;;;5.00;99.90;;;;;;5017549;28;20054;-74
2023/05/01 01:09:22;;;;;;;13.80;8.90;;;5.00;99.90;;;;;;5000233;28;20026;-75
2023/05/01 01:11:50;;;;;;;12.40;8.57;;;5.00;99.90;;;;;;4999672;28;20037;-75
2023/05/01 01:14:38;;;;;;;16.02;9.80;;;4.90;99.90;;;;;;5017594;28;20061;-75
2023/05/01 01:17:15;;;;;;;17.42;9.00;;;4.90;99.90;;;;;;5017834;28;20029;-75
2023/05/01 01:20:17;;;;;;;13.45;8.85;;;4.90;99.90;;;;;;5017632;28;20018;-75
2023/05/01 01:22:49;;;;;;;13.93;9.20;;;4.90;99.90;;;;;;5017480;28;20029;-75
2023/05/01 01:25:59;;;;;;;13.57;8.70;;;4.80;99.90;;;;;;5017949;28;20026;-75
2023/05/01 01:28:50;;;;;;;13.02;8.90;;;4.80;99.90;;;;;;5000971;28;20072;-75
2023/05/01 01:31:25;;;;;;;17.17;9.30;;;4.80;99.90;;;;;;5018204;28;20068;-74
2023/05/01 01:33:57;;;;;;;15.38;9.13;;;4.80;99.90;;;;;;5017466;28;20034;-75
2023/05/01 01:36:48;;;;;;;13.10;9.23;;;4.80;99.90;;;;;;5016724;28;20026;-75
2023/05/01 01:39:26;;;;;;;13.57;8.77;;;4.70;99.90;;;;;;4989121;28;20061;-74
2023/05/01 01:41:53;;;;;;;14.10;8.57;;;4.70;99.90;;;;;;5017202;28;20104;-74
2023/05/01 01:44:33;;;;;;;14.10;8.55;;;4.60;99.90;;;;;;5017757;28;20060;-75
2023/05/01 01:46:59;;;;;;;13.07;7.97;;;4.60;99.90;;;;;;4998331;28;20450;-75
2023/05/01 01:49:28;;;;;;;14.00;9.50;;;4.60;99.90;;;;;;5000574;28;20113;-75
2023/05/01 01:51:55;;;;;;;14.30;9.23;;;4.50;99.90;;;;;;5000569;28;20474;-74
2023/05/01 01:54:29;;;;;;;10.05;7.72;;;4.50;99.90;;;;;;5017441;28;20030;-75
2023/05/01 01:56:58;;;;;;;15.70;8.55;;;4.50;99.90;;;;;;4999578;28;20037;-74
2023/05/01 01:59:25;;;;;;;13.10;9.00;;;4.50;99.90;;;;;;4999519;28;20037;-75
2023/05/01 02:01:54;;;;;;;14.57;8.77;;;4.40;99.90;;;;;;5017741;28;20155;-75
2023/05/01 02:04:21;;;;;;;15.80;9.32;;;4.40;99.90;;;;;;5018440;28;20037;-75
2023/05/01 02:06:48;;;;;;;14.07;8.82;;;4.40;99.90;;;;;;5002020;28;20041;-75
2023/05/01 02:09:17;;;;;;;17.70;9.48;;;4.30;99.90;;;;;;5002331;28;20022;-75
2023/05/01 02:11:43;;;;;;;13.27;8.43;;;4.30;99.90;;;;;;5019894;28;20057;-75
2023/05/01 02:14:11;;;;;;;13.65;8.82;;;4.30;99.90;;;;;;5020142;28;20076;-75
2023/05/01 02:16:39;;;;;;;16.13;8.93;;;4.20;99.90;;;;;;5020969;28;20037;-75
2023/05/01 02:19:05;;;;;;;13.73;8.57;;;4.20;99.90;;;;;;5002088;28;20025;-75
2023/05/01 02:21:33;;;;;;;18.10;9.32;;;4.20;99.90;;;;;;5002119;28;20029;-75
2023/05/01 02:24:04;;;;;;;12.02;8.63;;;4.20;99.90;;;;;;5017532;28;20029;-75
2023/05/01 02:26:33;;;;;;;12.80;8.13;;;4.10;99.90;;;;;;5018718;28;20041;-75
2023/05/01 02:28:58;;;;;;;;;;;4.20;99.90;;;;;;5004939;28;20026;-74
2023/05/01 02:31:24;;;;;;;15.38;8.70;;;4.10;99.90;;;;;;5021586;28;19981;-74
2023/05/01 02:33:50;;;;;;;10.48;8.20;;;4.10;99.90;;;;;;5021579;28;20060;-75
2023/05/01 02:36:16;;;;;;;10.32;7.78;;;4.10;99.90;;;;;;5021374;28;20041;-74
2023/05/01 02:38:42;;;;;;;12.55;7.88;;;4.00;99.90;;;;;;5004191;28;20030;-75
2023/05/01 02:41:10;;;;;;;10.80;8.25;;;4.00;99.90;;;;;;5020458;28;20030;-75
2023/05/01 02:43:37;;;;;;;10.95;8.10;;;4.00;99.90;;;;;;4999787;28;20112;-75
2023/05/01 02:46:06;;;;;;;11.02;8.00;;;4.00;99.90;;;;;;5002434;28;20152;-74
2023/05/01 02:48:33;;;;;;;15.60;8.10;;;4.00;99.90;;;;;;5021185;28;20026;-74
2023/05/01 02:51:00;;;;;;;13.63;7.75;;;4.00;99.90;;;;;;5021260;28;20030;-74
2023/05/01 02:53:26;;;;;;;11.57;8.23;;;3.90;99.90;;;;;;5020492;28;20025;-75
2023/05/01 02:55:52;;;;;;;11.85;8.07;;;3.90;99.90;;;;;;5020811;28;20038;-74
2023/05/01 02:58:19;;;;;;;18.48;8.80;;;4.90;99.90;;;;;;5002240;28;20397;-75
2023/05/01 03:00:46;;;;;;;11.05;7.90;;;3.80;99.90;;;;;;5020056;28;20097;-75
2023/05/01 03:03:12;;;;;;;10.63;8.35;;;3.80;99.90;;;;;;5000966;28;20030;-75
2023/05/01 03:05:40;;;;;;;12.98;7.85;;;3.80;99.90;;;;;;5000763;28;20100;-75
2023/05/01 03:08:06;;;;;;;12.07;8.15;;;3.80;99.90;;;;;;5017534;28;20030;-74
2023/05/01 03:10:33;;;;;;;12.23;7.78;;;3.80;99.90;;;;;;5018192;28;20072;-74
2023/05/01 03:12:59;;;;;;;13.95;8.15;;;3.80;99.90;;;;;;5017571;28;20085;-74
2023/05/01 03:15:25;;;;;;;18.38;7.72;;;3.80;99.90;;;;;;5018966;28;20022;-74
2023/05/01 03:17:50;;;;;;;13.82;8.02;;;3.80;99.90;;;;;;5019559;28;20053;-74
2023/05/01 03:20:16;;;;;;;12.40;9.10;;;3.80;99.90;;;;;;5001718;28;20049;-74
2023/05/01 03:22:41;;;;;;;16.33;8.52;;;3.70;99.90;;;;;;5000827;28;20459;-74
2023/05/01 03:25:08;;;;;;;17.80;8.80;;;3.70;99.90;;;;;;5000905;28;20037;-74
2023/05/01 03:27:34;;;;;;;9.50;6.70;;;3.70;99.90;;;;;;5018363;28;20030;-74
2023/05/01 03:29:59;;;;;;;11.40;7.50;;;3.60;99.90;;;;;;5017003;28;20033;-74
2023/05/01 03:32:27;;;;;;;12.27;7.20;;;3.60;99.90;;;;;;5016994;28;20060;-75
2023/05/01 03:34:53;;;;;;;11.23;8.37;;;3.60;99.90;;;;;;4999269;28;20124;-75
2023/05/01 03:37:19;;;;;;;8.52;6.78;;;3.60;99.90;;;;;;5016334;28;20426;-75
2023/05/01 03:39:45;;;;;;;11.73;7.95;;;3.60;99.90;;;;;;5016729;28;20026;-74
2023/05/01 03:42:11;;;;;;;11.27;7.95;;;3.60;99.90;;;;;;4998815;28;20385;-74
2023/05/01 03:44:36;;;;;;;10.20;7.75;;;3.50;99.90;;;;;;4999158;28;20025;-74
2023/05/01 03:47:02;;;;;;;13.02;7.07;;;3.50;99.90;;;;;;5016440;28;20129;-74
2023/05/01 03:49:28;;;;;;;12.50;7.05;;;3.40;99.90;;;;;;4998738;28;20382;-74
2023/05/01 03:51:53;;;;;;;11.13;7.18;;;3.40;99.90;;;;;;5015810;28;20109;-74
2023/05/01 03:54:19;;;;;;;9.88;7.00;;;4.20;99.90;;;;;;5016351;28;20075;-74
2023/05/01 03:56:45;;;;;;;10.13;7.22;;;3.40;99.90;;;;;;4998405;28;20026;-74
2023/05/01 03:59:11;;;;;;;12.02;7.18;;;4.70;99.90;;;;;;5016167;28;20036;-74
2023/05/01 04:01:37;;;;;;;10.93;6.95;;;3.40;99.90;;;;;;4998726;28;20064;-74
2023/05/01 04:04:02;;;;;;;12.82;7.57;;;3.40;99.90;;;;;;5016234;28;20026;-75
2023/05/01 04:06:28;;;;;;;10.82;7.20;;;3.40;99.90;;;;;;5016366;28;20041;-75
2023/05/01 04:08:54;;;;;;;11.48;6.97;;;3.50;99.90;;;;;;5016682;28;20030;-75
2023/05/01 04:11:20;;;;;;;10.88;6.78;;;3.40;99.90;;;;;;5022343;28;20377;-74
2023/05/01 04:13:46;;;;;;;14.27;7.60;;;3.50;99.90;;;;;;5005684;28;20033;-75
2023/05/01 04:16:11;;;;;;;10.20;7.50;;;3.50;99.90;;;;;;5004555;28;20053;-75
2023/05/01 04:18:37;;;;;;;9.93;6.90;;;3.50;99.90;;;;;;5020964;28;20026;-75
2023/05/01 04:21:03;;;;;;;12.10;7.70;;;3.60;99.90;;;;;;5022075;28;20176;-75
2023/05/01 04:23:28;;;;;;;8.75;7.13;;;3.70;99.90;;;;;;5021915;28;20044;-75
2023/05/01 04:25:54;;;;;;;12.90;7.80;;;3.70;99.90;;;;;;5022291;28;20470;-75
2023/05/01 04:28:20;;;;;;;13.75;7.60;;;3.70;99.90;;;;;;5004438;28;20030;-75
2023/05/01 04:30:46;;;;;;;8.80;7.38;;;3.80;99.90;;;;;;5021839;28;20058;-74
2023/05/01 04:33:11;;;;;;;12.18;6.90;;;3.80;99.90;;;;;;5021975;28;20104;-74
2023/05/01 04:35:38;;;;;;;9.23;7.18;;;3.90;99.90;;;;;;5003967;28;20044;-74
2023/05/01 04:38:04;;;;;;;11.48;6.68;;;3.90;99.90;;;;;;5021501;28;20018;-74
2023/05/01 04:40:30;;;;;;;8.73;6.25;;;4.00;99.90;;;;;;5003790;28;20100;-74
2023/05/01 04:42:56;;;;;;;9.45;6.60;;;4.00;99.90;;;;;;5021373;28;20466;-74
2023/05/01 04:45:21;;;;;;;11.57;7.35;;;4.00;99.90;;;;;;5021098;28;20057;-74
2023/05/01 04:47:47;;;;;;;10.18;6.57;;;4.00;99.90;;;;;;5021725;28;20029;-74
2023/05/01 04:50:13;;;;;;;10.43;6.47;;;4.10;99.90;;;;;;5021379;28;20034;-74
2023/05/01 04:52:38;;;;;;;10.40;6.95;;;4.10;99.90;;;;;;5002888;28;20172;-74
2023/05/01 04:55:05;;;;;;;8.23;5.80;;;4.20;99.90;;;;;;5002735;28;20116;-73
2023/05/01 04:57:30;;;;;;;7.82;5.93;;;4.30;99.90;;;;;;5003122;28;20025;-74
2023/05/01 04:59:56;;;;;;;9.23;6.53;;;4.30;99.90;;;;;;5002655;28;20512;-74
2023/05/01 05:02:22;;;;;;;9.85;6.15;;;4.40;99.90;;;;;;5020227;28;20046;-74
2023/05/01 05:04:48;;;;;;;7.97;5.85;;;4.50;99.90;;;;;;5020745;28;20032;-73
2023/05/01 05:07:14;;;;;;;7.10;5.90;;;4.60;99.90;;;;;;5003188;28;20040;-74
2023/05/01 05:09:39;;;;;;;9.68;6.28;;;4.70;99.90;;;;;;5020636;28;20524;-73
2023/05/01 05:12:05;;;;;;;9.40;5.82;;;4.90;99.90;;;;;;5021027;28;20032;-74
2023/05/01 05:14:30;;;;;;;9.90;5.60;;;4.90;99.90;;;;;;5020808;28;20401;-73
2023/05/01 05:16:56;;;;;;;10.52;6.32;;;4.90;99.90;;;;;;5021044;28;20444;-74
2023/05/01 05:19:22;;;;;;;9.75;5.90;;;5.00;99.90;;;;;;5020985;28;20393;-73
2023/05/01 05:21:47;;;;;;;7.80;5.95;;;5.10;99.90;;;;;;5018100;28;20069;-74
2023/05/01 05:24:13;;;;;;;8.15;5.78;;;5.20;99.90;;;;;;5016421;28;20026;-74
2023/05/01 05:26:39;;;;;;;11.15;5.50;;;5.30;99.90;;;;;;5016615;28;20061;-74
2023/05/01 05:29:05;;;;;;;13.57;6.28;;;5.40;99.90;;;;;;5017815;28;20094;-73
2023/05/01 05:31:30;;;;;;;8.13;5.57;;;5.50;99.90;;;;;;5017683;28;20034;-74
2023/05/01 05:33:56;;;;;;;9.43;5.15;;;5.70;99.90;;;;;;5017149;28;20026;-74
2023/05/01 05:36:21;;;;;;;7.10;5.13;;;5.90;99.90;;;;;;4999700;28;20458;-73
2023/05/01 05:38:47;;;;;;;8.27;5.22;;;6.00;99.90;;;;;;5017335;28;20041;-74
2023/05/01 05:41:13;;;;;;;5.88;5.03;;;6.10;99.90;;;;;;5017640;28;20046;-74
2023/05/01 05:43:39;;;;;;;13.00;6.63;;;6.20;99.90;;;;;;5000669;28;20108;-74
2023/05/01 05:46:04;;;;;;;6.90;4.45;;;6.40;99.90;;;;;;4999987;28;20445;-74
2023/05/01 05:48:30;;;;;;;10.10;4.63;;;6.50;99.90;;;;;;5018262;28;20096;-75
2023/05/01 05:50:56;;;;;;;6.18;4.88;;;6.70;99.90;;;;;;5018085;28;20032;-74
2023/05/01 05:53:22;;;;;;;7.72;4.07;;;6.80;99.90;;;;;;5017239;28;20347;-75
2023/05/01 05:55:47;;;;;;;9.02;4.28;;;7.00;99.90;;;;;;5016575;28;20115;-74
2023/05/01 05:58:18;;;;;;;4.47;3.35;;;7.40;99.90;;;;;;5016262;28;20101;-72
2023/05/01 06:00:48;;;;;;;6.47;3.53;;;7.90;99.90;;;;;;4998733;28;20030;-73
2023/05/01 06:03:14;;;;;;;5.32;3.63;;;8.40;99.90;;;;;;5016099;28;20030;-74
2023/05/01 06:05:41;;;;;;;6.75;3.45;;;8.90;99.90;;;;;;5016380;28;20141;-74
2023/05/01 06:08:09;;;;;;;6.32;3.50;;;9.40;99.90;;;;;;4998088;28;20072;-75
2023/05/01 06:10:36;;;;;;;6.60;3.20;;;9.80;99.90;;;;;;5016070;28;20021;-75
2023/05/01 06:13:02;;;;;;;3.13;2.78;;;10.30;99.90;;;;;;5015963;28;20033;-75
2023/05/01 06:15:28;;;;;;;7.05;3.42;;;10.80;99.90;;;;;;5015581;28;20037;-63
2023/05/01 06:17:54;;;;;;;9.35;4.07;;;11.00;99.90;;;;;;5015809;28;20026;-74
2023/05/01 06:20:19;;;;;;;5.57;3.38;;;11.00;99.90;;;;;;5016032;28;20168;-78
2023/05/01 06:22:45;;;;;;;8.38;3.13;;;10.90;99.90;;;;;;4998104;28;20029;-78
2023/05/01 06:25:11;;;;;;;7.75;3.53;;;11.20;99.90;;;;;;4998046;28;20033;-77
2023/05/01 06:27:37;;;;;;;4.70;3.58;;;11.50;99.90;;;;;;4998164;28;20030;-76
2023/05/01 06:30:03;;;;;;;5.82;3.35;;;11.90;99.90;;;;;;5015519;28;20369;-79
2023/05/01 06:32:28;;;;;;;4.20;3.00;;;12.30;99.90;;;;;;5015426;28;20026;-74
2023/05/01 06:34:54;;;;;;;6.65;3.42;;;12.60;99.90;;;;;;5015515;28;20025;-74
2023/05/01 06:37:20;;;;;;;7.60;3.50;;;12.90;99.00;;;;;;5015319;28;20030;-74
2023/05/01 06:39:46;;;;;;;5.45;3.50;;;13.20;99.70;;;;;;4997745;28;20022;-74
2023/05/01 06:42:14;;;;;;;7.88;3.40;;;13.50;96.60;;;;;;5015282;28;20140;-74
2023/05/01 06:44:41;;;;;;;9.25;3.50;;;13.80;96.10;;;;;;5015042;28;20036;-73
2023/05/01 06:47:06;;;;;;;7.00;3.70;;;14.10;95.10;;;;;;5015555;28;20026;-74
2023/05/01 06:49:32;;;;;;;7.57;3.75;;;14.50;93.50;;;;;;5015270;28;20026;-74
2023/05/01 06:51:58;;;;;;;5.30;3.35;;;14.60;90.80;;;;;;4997831;28;20040;-74
2023/05/01 06:54:25;;;;;;;4.97;3.33;;;14.50;90.30;;;;;;5014819;28;20033;-73
2023/05/01 06:56:54;;;;;;;7.50;3.30;;;14.40;88.30;;;;;;5014754;28;20390;-73
2023/05/01 06:59:19;;;;;;;6.78;3.60;;;14.60;88.50;;;;;;4998084;28;20036;-64
2023/05/01 07:01:45;;;;;;;10.23;4.03;;;14.90;88.20;;;;;;5015065;28;20033;-64
2023/05/01 07:04:11;;;;;;;7.88;4.32;;;14.90;88.50;;;;;;5015399;28;20026;-64
2023/05/01 07:06:37;;;;;;;7.97;3.60;;;15.00;87.70;;;;;;5013555;28;20057;-64
2023/05/01 07:09:04;;;;;;;7.13;3.70;;;15.10;85.60;;;;;;5014525;28;20091;-64
2023/05/01 07:11:29;;;;;;;7.13;3.30;;;15.00;84.00;;;;;;5014545;28;20028;-64
2023/05/01 07:13:55;;;;;;;7.80;3.50;;;15.00;85.80;;;;;;4997278;28;20404;-73
2023/05/01 07:16:21;;;;;;;7.05;3.53;;;15.20;84.90;;;;;;4997113;28;20117;-74
2023/05/01 07:18:46;;;;;;;5.05;3.35;;;15.20;83.40;;;;;;4997092;28;20029;-73
2023/05/01 07:21:12;;;;;;;10.32;4.13;;;15.30;80.10;;;;;;5014312;28;20480;-73
2023/05/01 07:23:38;;;;;;;9.60;3.10;;;15.60;79.80;;;;;;4996943;28;20528;-74
2023/05/01 07:26:04;;;;;;;6.65;4.60;;;15.60;79.10;;;;;;5014418;28;20033;-74
2023/05/01 07:28:30;;;;;;;4.93;3.85;;;15.70;75.60;;;;;;4996925;28;20057;-73
2023/05/01 07:30:56;;;;;;;5.63;3.55;;;15.30;75.70;;;;;;4997172;28;20466;-72
2023/05/01 07:33:24;;;;;;;8.73;3.45;;;15.30;76.70;;;;;;4996859;28;20168;-75
2023/05/01 07:35:50;;;;;;;7.88;4.20;;;15.70;77.80;;;;;;5014318;28;20390;-74
2023/05/01 07:38:16;;;;;;;8.77;3.72;;;16.20;74.40;;;;;;4996981;28;20026;-75
2023/05/01 07:40:42;;;;;;;4.47;3.45;;;16.40;72.70;;;;;;5014423;28;20029;-74
2023/05/01 07:43:10;;;;;;;7.28;4.05;;;16.60;72.60;;;;;;4997350;28;20026;-74
2023/05/01 07:45:40;;;;;;;9.98;3.95;;;16.00;71.20;;;;;;4995669;28;20061;-74
2023/05/01 07:48:06;;;;;;;6.70;4.70;;;15.90;73.10;;;;;;4996720;28;20030;-74
2023/05/01 07:50:31;;;;;;;8.57;3.80;;;16.30;74.30;;;;;;4996575;28;20104;-74
2023/05/01 07:52:57;;;;;;;7.47;4.30;;;16.80;73.50;;;;;;4996524;28;20134;-74
2023/05/01 07:55:23;;;;;;;5.57;3.58;;;16.60;70.50;;;;;;5014372;28;20101;-74
2023/05/01 07:57:49;;;;;;;7.20;3.80;;;17.00;72.00;;;;;;4996522;28;20022;-74
2023/05/01 08:00:16;;;;;;;7.28;4.07;;;17.20;70.50;;;;;;4996525;28;20104;-75
2023/05/01 08:02:42;;;;;;;7.55;4.60;;;16.90;69.90;;;;;;4996722;28;20030;-75
2023/05/01 08:05:08;;;;;;;8.15;3.70;;;16.90;68.30;;;;;;5013678;28;20030;-75
2023/05/01 08:07:34;;;;;;;5.00;3.50;;;17.20;67.80;;;;;;5013795;28;20131;-74
2023/05/01 08:10:00;;;;;;;7.72;3.90;;;17.40;68.50;;;;;;4996251;28;20065;-74
2023/05/01 08:12:27;;;;;;;6.05;3.80;;;17.40;67.80;;;;;;5013907;28;20026;-73
2023/05/01 08:14:53;;;;;;;6.88;4.28;;;17.40;68.10;;;;;;4996284;28;20053;-74
2023/05/01 08:17:19;;;;;;;5.68;3.60;;;16.80;69.00;;;;;;5013618;28;20065;-74
2023/05/01 08:19:44;;;;;;;7.10;3.88;;;17.20;69.40;;;;;;4996257;28;20129;-74
2023/05/01 08:22:11;;;;;;;9.15;4.38;;;17.20;68.80;;;;;;4996455;28;20026;-63
2023/05/01 08:24:37;;;;;;;5.97;4.07;;;17.10;72.50;;;;;;5013408;28;20157;-63
2023/05/01 08:27:03;;;;;;;6.32;3.90;;;17.30;69.70;;;;;;5013865;28;20045;-63
2023/05/01 08:29:29;;;;;;;4.72;3.67;;;17.30;70.70;;;;;;5013549;28;20026;-63
2023/05/01 08:31:57;;;;;;;5.55;3.85;;;17.80;69.10;;;;;;5013849;28;20508;-64
2023/05/01 08:34:22;;;;;;;5.47;3.63;;;18.40;69.40;;;;;;5014123;28;20390;-64
2023/05/01 08:36:48;;;;;;;5.25;4.15;;;18.80;67.10;;;;;;5014057;28;20022;-62
2023/05/01 08:39:14;;;;;;;7.20;3.80;;;18.60;67.20;;;;;;5013696;28;20037;-62
2023/05/01 08:41:43;;;;;;;6.75;3.90;;;18.60;68.10;;;;;;5013753;28;20381;-62
2023/05/01 08:44:10;;;;;;;7.90;4.07;;;18.90;68.10;;;;;;5013734;28;20031;-62
2023/05/01 08:47:04;;;;;;;9.90;4.18;;;19.00;66.60;;;;;;5013795;28;20050;-62
2023/05/01 08:49:33;;;;;;;7.18;4.10;;;18.90;66.30;;;;;;4996328;28;20104;-61
2023/05/01 08:52:01;;;;;;;6.95;3.90;;;18.70;66.70;;;;;;4995950;28;20477;-61
2023/05/01 08:54:28;;;;;;;6.00;4.05;;;18.70;69.00;;;;;;5013760;28;20528;-64
2023/05/01 08:56:54;;;;;;;6.47;4.20;;;19.20;67.20;;;;;;4997605;28;20392;-64
2023/05/01 08:59:22;;;;;;;7.75;4.25;;;19.60;66.10;;;;;;4999587;28;20121;-64
2023/05/01 09:01:50;;;;;;;4.90;3.70;;;19.40;65.30;;;;;;5017186;28;20448;-64
2023/05/01 09:04:16;;;;;;;8.80;4.03;;;19.20;66.30;;;;;;5016378;28;20034;-64
2023/05/01 09:06:43;;;;;;;6.20;3.72;;;19.10;66.20;;;;;;5016577;28;20037;-63
2023/05/01 09:09:09;;;;;;;7.20;3.40;;;18.80;66.60;;;;;;5017172;28;20030;-62
2023/05/01 09:11:35;;;;;;;7.88;3.58;;;18.80;67.50;;;;;;5016764;28;20109;-79
2023/05/01 09:14:04;;;;;;;6.22;3.45;;;19.50;66.60;;;;;;5016799;28;20072;-80
2023/05/01 09:16:30;;;;;;;7.38;4.00;;;20.10;63.90;;;;;;5000169;28;20513;-82
2023/05/01 09:18:58;;;;;;;6.85;3.42;;;19.70;64.30;;;;;;5017542;28;20034;-81
2023/05/01 09:21:25;;;;;;;7.85;3.90;;;19.60;64.60;;;;;;5017784;28;20022;-81
2023/05/01 09:23:52;;;;;;;6.15;3.65;;;19.80;64.50;;;;;;5017575;28;20033;-82
2023/05/01 09:26:18;;;;;;;4.75;3.15;;;19.60;64.70;;;;;;5017454;28;20454;-83
2023/05/01 09:28:47;;;;;;;4.22;2.90;;;20.10;65.00;;;;;;5017064;28;20144;-81
2023/05/01 09:31:21;;;;;;;6.68;3.33;;;21.10;63.90;;;;;;4999806;28;20030;-80
2023/05/01 09:34:01;;;;;;;5.57;2.75;;;21.70;61.40;;;;;;5016945;28;20447;-79
2023/05/01 09:36:29;;;;;;;4.97;2.90;;;21.70;57.30;;;;;;5017054;28;20022;-80
2023/05/01 09:38:59;;;;;;;7.93;2.40;;;20.90;58.50;;;;;;5016909;28;20410;-80
2023/05/01 09:41:25;;;;;;;6.10;2.97;;;21.60;58.10;;;;;;5016684;28;20034;-77
2023/05/01 09:43:56;;;;;;;7.55;2.90;;;21.50;56.60;;;;;;5016578;28;20032;-77
2023/05/01 09:46:23;;;;;;;4.10;2.92;;;20.60;58.60;;;;;;4998491;28;20050;-77
2023/05/01 09:49:00;;;;;;;3.63;2.72;;;20.40;58.30;;;;;;5016345;28;20044;-77
2023/05/01 09:51:30;;;;;;;4.63;2.42;;;20.30;59.40;;;;;;5016362;28;20033;-75
2023/05/01 09:54:17;;;;;;;4.00;2.70;;;20.80;58.40;;;;;;5016589;28;20409;-76
2023/05/01 09:56:47;;;;;;;6.43;3.28;;;20.30;58.80;;;;;;5015449;28;20030;-77
2023/05/01 09:59:18;;;;;;;4.63;2.40;;;20.20;60.20;;;;;;4998634;28;20029;-78
2023/05/01 10:01:46;;;;;;;4.15;2.65;;;20.60;58.90;;;;;;5015938;28;20413;-77
2023/05/01 10:04:13;;;;;;;5.00;2.15;;;20.40;58.60;;;;;;5016221;28;20033;-77
2023/05/01 10:06:39;;;;;;;5.32;2.33;;;20.70;59.10;;;;;;5015382;28;20049;-79
2023/05/01 10:09:09;;;;;;;3.30;2.30;;;21.70;58.20;;;;;;5015968;28;20109;-78
2023/05/01 10:11:56;;;;;;;4.15;1.98;;;21.70;56.20;;;;;;4998235;28;20458;-78
2023/05/01 10:14:27;;;;;;;3.20;2.10;;;21.00;58.00;;;;;;4998617;28;20096;-79
2023/05/01 10:16:52;;;;;;;3.67;2.53;;;21.40;56.60;;;;;;5015616;28;20030;-78
2023/05/01 10:19:19;;;;;;;4.50;2.10;;;21.30;57.50;;;;;;5015341;28;20055;-80
2023/05/01 10:21:45;;;;;;;4.07;2.30;;;21.80;57.50;;;;;;5015262;28;20056;-80
2023/05/01 10:24:11;;;;;;;3.85;2.28;;;21.80;55.60;;;;;;5015821;28;20061;-79
2023/05/01 10:26:36;;;;;;;3.63;2.20;;;21.80;55.70;;;;;;5015795;28;20030;-78
2023/05/01 10:29:03;;;;;;;2.58;2.30;;;22.60;55.20;;;;;;4998101;28;20037;-74
2023/05/01 10:31:31;;;;;;;9.27;2.45;;;22.40;54.00;;;;;;4998488;28;20370;-63
2023/05/01 10:33:59;;;;;;;7.73;2.40;;;21.90;55.00;;;;;;5015227;28;20456;-61
2023/05/01 10:36:38;;;;;;;6.95;2.38;;;21.80;55.90;;;;;;5015441;28;20466;-61
2023/05/01 10:39:03;;;;;;;3.92;2.30;;;22.30;56.50;;;;;;5014190;28;20030;-63
2023/05/01 10:41:57;;;;;;;4.30;2.08;;;22.10;55.40;;;;;;5015077;28;20041;-63
2023/05/01 10:44:25;;;;;;;4.30;2.25;;;22.10;55.40;;;;;;5015297;28;20041;-63
2023/05/01 10:46:50;;;;;;;2.53;2.10;;;22.20;55.00;;;;;;4997185;28;20053;-62
2023/05/01 10:49:17;;;;;;;6.18;2.88;;;22.00;55.40;;;;;;5015225;28;20030;-63
2023/05/01 10:51:57;;;;;;;2.35;2.10;;;21.60;55.80;;;;;;5014939;28;20148;-75
2023/05/01 10:54:27;;;;;;;2.47;2.05;;;21.40;56.20;;;;;;5015152;28;20076;-75
2023/05/01 10:56:55;;;;;;;3.10;2.20;;;21.00;57.00;;;;;;4997402;28;20033;-75
2023/05/01 10:59:21;;;;;;;4.20;1.80;;;22.00;56.00;;;;;;5015103;28;20061;-75
2023/05/01 11:01:50;;;;;;;2.88;1.90;;;21.90;55.80;;;;;;5014981;28;20115;-75
2023/05/01 11:04:18;;;;;;;;;;;22.90;54.50;;;;;;5015396;28;20018;-75
2023/05/01 11:07:03;;;;;;;3.63;2.05;;;23.60;54.00;;;;;;4997255;28;19962;-76
2023/05/01 11:09:40;;;;;;;3.10;1.95;;;23.40;53.20;;;;;;5014764;28;20390;-76
2023/05/01 11:12:07;;;;;;;2.70;1.83;;;22.20;54.10;;;;;;4997240;28;20034;-74
2023/05/01 11:15:07;;;;;;;3.55;1.70;;;21.70;55.10;;;;;;4997148;28;20026;-75
2023/05/01 11:17:41;;;;;;;3.22;1.80;;;22.20;56.00;;;;;;5015161;28;20022;-75
2023/05/01 11:20:28;;;;;;;5.85;2.00;;;22.20;54.90;;;;;;5013797;28;20025;-75
2023/05/01 11:22:56;;;;;;;3.97;1.75;;;21.30;56.20;;;;;;4983680;28;20034;-73
2023/05/01 11:25:24;;;;;;;2.92;1.90;;;21.20;56.60;;;;;;5004041;28;20061;-76
2023/05/01 11:27:51;;;;;;;5.88;2.00;;;20.90;57.00;;;;;;5016233;28;20447;-75
2023/05/01 11:30:17;;;;;;;3.70;2.17;;;21.10;58.30;;;;;;5027228;28;20108;-76
2023/05/01 11:32:45;;;;;;;5.32;1.75;;;21.40;56.50;;;;;;4997891;28;20355;-75
2023/05/01 11:35:27;;;;;;;2.67;2.15;;;21.50;56.70;;;;;;5014617;28;20083;-75
2023/05/01 11:37:57;;;;;;;9.10;1.95;;;21.90;56.40;;;;;;5014394;28;20025;-75
2023/05/01 11:40:32;;;;;;;3.00;1.85;;;21.80;55.80;;;;;;4996891;28;20083;-75
2023/05/01 11:43:04;;;;;;;2.10;1.77;;;21.70;55.80;;;;;;4996671;28;20030;-75
2023/05/01 11:45:30;;;;;;;2.95;1.90;;;20.90;57.30;;;;;;5014126;28;20112;-75
2023/05/01 11:47:57;;;;;;;3.97;1.77;;;21.20;58.00;;;;;;4996593;28;20061;-75
2023/05/01 11:50:39;;;;;;;3.70;1.95;;;21.10;57.80;;;;;;4996452;28;20034;-75
2023/05/01 11:53:16;;;;;;;4.22;2.05;;;21.40;57.70;;;;;;4996590;28;20033;-75
2023/05/01 11:55:42;;;;;;;2.70;1.83;;;21.70;56.00;;;;;;5014217;28;20037;-75
2023/05/01 11:58:08;;;;;;;3.40;2.30;;;21.90;56.10;;;;;;4996504;28;20040;-75
2023/05/01 12:00:36;;;;;;;3.10;1.90;;;21.30;57.10;;;;;;4997029;28;20078;-75
2023/05/01 12:03:03;;;;;;;2.78;1.55;;;20.90;58.50;;;;;;5014058;28;20022;-75
2023/05/01 12:05:30;;;;;;;2.42;1.77;;;21.10;59.20;;;;;;4996304;28;20509;-75
2023/05/01 12:08:11;;;;;;;2.90;1.60;;;21.20;58.30;;;;;;5014196;28;20096;-75
2023/05/01 12:10:38;;;;;;;2.60;2.00;;;21.60;57.60;;;;;;5014014;28;20030;-75
2023/05/01 12:13:06;;;;;;;1.83;1.58;;;21.40;58.10;;;;;;5014049;28;20478;-75
2023/05/01 12:15:40;;;;;;;2.28;1.85;;;21.90;57.60;;;;;;5013877;28;20030;-75
2023/05/01 12:18:07;;;;;;;1.63;1.52;;;21.60;57.60;;;;;;5013972;28;20026;-75
2023/05/01 12:20:33;;;;;;;2.53;1.50;;;22.50;56.40;;;;;;5013923;28;20026;-75
2023/05/01 12:22:59;;;;;;;2.72;1.50;;;21.70;55.20;;;;;;5013883;28;20026;-75
2023/05/01 12:25:34;;;;;;;2.80;1.80;;;22.60;54.40;;;;;;5013962;28;20091;-75
2023/05/01 12:28:03;;;;;;;1.48;1.38;;;22.70;52.60;;;;;;5014028;28;20114;-75
2023/05/01 12:30:29;;;;;;;3.83;1.63;;;22.20;53.40;;;;;;5014972;28;20026;-75
2023/05/01 12:32:56;;;;;;;3.80;1.75;;;22.50;53.90;;;;;;5000430;28;20129;-74
2023/05/01 12:35:27;;;;;;;4.88;2.53;;;22.30;53.40;;;;;;5018033;28;20033;-74
2023/05/01 12:37:54;;;;;;;8.55;1.90;;;21.80;54.60;;;;;;4999719;28;20022;-77
2023/05/01 12:40:21;;;;;;;3.67;1.83;;;20.50;56.70;;;;;;5017886;28;20018;-75
2023/05/01 12:42:59;;;;;;;2.22;1.60;;;20.60;58.80;;;;;;5017389;28;20423;-73
2023/05/01 12:45:25;;;;;;;2.83;2.50;;;20.20;58.40;;;;;;4999749;28;20058;-70
2023/05/01 12:47:50;;;;;;;2.72;1.45;;;20.00;59.00;;;;;;4999898;28;20022;-75
2023/05/01 12:50:17;;;;;;;1.55;1.45;;;20.40;59.40;;;;;;5017890;28;20466;-75
2023/05/01 12:52:43;;;;;;;4.55;1.70;;;20.70;57.90;;;;;;4999835;28;20060;-75